Accueil
METAR-TAF:

METAR-TAF

Aéroports :

Cambridge, Angleterre

Aéroport international de Cambridge

latitude: 52-12N, longitude: 000-11E, altitude: 15 m

Observation

Le bulletin a été fait il y a 40 minutes, à 10:20 UTC
Vent 17 kt de sud/sud-ouest
Température 14°C
Humidité 77%
Pression 998 hPa
Visibilité 10 km ou plus
Quelques nuages à une hauteur de 2300 ft

METAR: EGSC 221020Z 21017KT 9999 FEW023 14/10 Q0998

Heure: 11:00 (11:00 UTC)

Prévision

Le bulletin a été fait il y a 2 heures et 37 minutes, à 08:23 UTC
Prévision valable du 22 à 09 UTC au 22 à 18 UTC
Vent 18 kt de sud-ouest avec des rafales jusqu'à 28 kt
Visibilité 10 km ou plus
Nuages épars à une hauteur de 2500 ft
Evoluant progressivement
du 22 à 12 UTC au 22 à 15 UTC
Vent 20 kt de sud avec des rafales jusqu'à 32 kt

TAF: EGSC 220823Z 2209/2218 22018G28KT 9999 SCT025 BECMG 2212/2215 19020G32KT

Observations et prévisions météorologiques de plus de 4000 aéroports (messages METAR et TAF).

Les stations disponibles sont représentées par des disques jaunes et rouges sur la carte.

Passer la souris dessus pour voir le nom de la station.

Cliquer dessus pour voir les observations et prévisions météorologiques.

Pour changer de carte: cliquez sur les boutons verts avec une croix noire pour zoomer, sur le bouton vert avec un tiret pour effectuer un zoom arrière, ou sur les flèches vertes pour les cartes adjacentes.


METAR-TAF: